sensor_id;sensor_type;location;lat;lon;timestamp;pressure;altitude;pressure_sealevel;temperature;humidity
61484;BME280;47349;55.640;37.692;2022-08-30T00:00:14;98494.16;;;19.63;83.78
61484;BME280;47349;55.640;37.692;2022-08-30T00:03:09;98514.63;;;19.81;83.62
61484;BME280;47349;55.640;37.692;2022-08-30T00:05:46;98492.00;;;19.65;83.53
61484;BME280;47349;55.640;37.692;2022-08-30T00:08:27;98481.66;;;19.62;83.70
61484;BME280;47349;55.640;37.692;2022-08-30T00:11:16;98470.72;;;19.57;83.78
61484;BME280;47349;55.640;37.692;2022-08-30T00:13:59;98475.66;;;19.60;83.98
61484;BME280;47349;55.640;37.692;2022-08-30T00:16:34;98525.97;;;19.67;84.18
61484;BME280;47349;55.640;37.692;2022-08-30T00:19:02;98501.09;;;19.48;84.70
61484;BME280;47349;55.640;37.692;2022-08-30T00:21:44;98514.44;;;19.50;85.44
61484;BME280;47349;55.640;37.692;2022-08-30T00:24:13;98501.06;;;19.43;85.27
61484;BME280;47349;55.640;37.692;2022-08-30T00:26:54;98498.31;;;19.38;85.82
61484;BME280;47349;55.640;37.692;2022-08-30T00:29:37;98496.16;;;19.35;85.30
61484;BME280;47349;55.640;37.692;2022-08-30T00:32:18;98484.94;;;19.26;85.69
61484;BME280;47349;55.640;37.692;2022-08-30T00:35:03;98525.31;;;19.50;85.60
61484;BME280;47349;55.640;37.692;2022-08-30T00:37:33;98497.22;;;19.34;85.50
61484;BME280;47349;55.640;37.692;2022-08-30T00:40:18;98480.25;;;19.17;85.76
61484;BME280;47349;55.640;37.692;2022-08-30T00:42:58;98509.97;;;19.34;86.18
61484;BME280;47349;55.640;37.692;2022-08-30T00:45:42;98511.91;;;19.38;86.45
61484;BME280;47349;55.640;37.692;2022-08-30T00:48:13;98488.00;;;19.35;85.80
61484;BME280;47349;55.640;37.692;2022-08-30T00:50:45;98483.34;;;19.31;86.10
61484;BME280;47349;55.640;37.692;2022-08-30T00:53:32;98491.56;;;19.41;86.06
61484;BME280;47349;55.640;37.692;2022-08-30T00:56:18;98491.84;;;19.39;86.63
61484;BME280;47349;55.640;37.692;2022-08-30T00:58:53;98483.00;;;19.22;87.00
61484;BME280;47349;55.640;37.692;2022-08-30T01:01:31;98489.25;;;19.22;87.15
61484;BME280;47349;55.640;37.692;2022-08-30T01:04:13;98477.50;;;19.12;87.51
61484;BME280;47349;55.640;37.692;2022-08-30T01:06:44;98483.28;;;19.20;87.54
61484;BME280;47349;55.640;37.692;2022-08-30T01:09:16;98481.84;;;19.13;87.52
61484;BME280;47349;55.640;37.692;2022-08-30T01:11:58;98489.72;;;19.14;87.73
61484;BME280;47349;55.640;37.692;2022-08-30T01:14:39;98505.81;;;19.21;88.14
61484;BME280;47349;55.640;37.692;2022-08-30T01:17:08;98459.47;;;18.95;87.97
61484;BME280;47349;55.640;37.692;2022-08-30T01:22:35;98455.69;;;18.96;87.95
61484;BME280;47349;55.640;37.692;2022-08-30T01:25:22;98462.25;;;19.06;87.85
61484;BME280;47349;55.640;37.692;2022-08-30T01:28:05;98501.22;;;19.21;87.81
61484;BME280;47349;55.640;37.692;2022-08-30T01:30:53;98498.75;;;19.20;87.96
61484;BME280;47349;55.640;37.692;2022-08-30T01:33:22;98479.09;;;19.08;88.15
61484;BME280;47349;55.640;37.692;2022-08-30T01:36:12;98478.06;;;19.14;88.17
61484;BME280;47349;55.640;37.692;2022-08-30T01:38:54;98472.63;;;19.14;87.99
61484;BME280;47349;55.640;37.692;2022-08-30T01:41:36;98464.44;;;19.09;88.00
61484;BME280;47349;55.640;37.692;2022-08-30T01:44:07;98467.78;;;19.21;87.65
61484;BME280;47349;55.640;37.692;2022-08-30T01:46:41;98467.78;;;19.21;87.64
61484;BME280;47349;55.640;37.692;2022-08-30T01:49:24;98472.63;;;19.14;87.84
61484;BME280;47349;55.640;37.692;2022-08-30T01:51:58;98456.81;;;19.00;87.88
61484;BME280;47349;55.640;37.692;2022-08-30T01:54:58;98470.91;;;19.03;88.08
61484;BME280;47349;55.640;37.692;2022-08-30T01:57:43;98488.09;;;19.13;88.42
61484;BME280;47349;55.640;37.692;2022-08-30T02:00:13;98481.28;;;19.06;88.44
61484;BME280;47349;55.640;37.692;2022-08-30T02:02:57;98485.03;;;19.05;88.60
61484;BME280;47349;55.640;37.692;2022-08-30T02:05:32;98489.06;;;18.97;88.43
61484;BME280;47349;55.640;37.692;2022-08-30T02:08:14;98491.59;;;19.09;88.54
61484;BME280;47349;55.640;37.692;2022-08-30T02:10:56;98462.13;;;18.90;88.62
61484;BME280;47349;55.640;37.692;2022-08-30T02:13:40;98461.84;;;18.87;89.16
61484;BME280;47349;55.640;37.692;2022-08-30T02:16:23;98491.88;;;19.07;89.10
61484;BME280;47349;55.640;37.692;2022-08-30T02:18:54;98479.03;;;18.97;89.13
61484;BME280;47349;55.640;37.692;2022-08-30T02:21:24;98493.88;;;18.90;89.38
61484;BME280;47349;55.640;37.692;2022-08-30T02:24:02;98495.88;;;18.99;89.44
61484;BME280;47349;55.640;37.692;2022-08-30T02:26:39;98490.00;;;18.81;89.72
61484;BME280;47349;55.640;37.692;2022-08-30T02:29:09;98467.91;;;18.67;89.86
61484;BME280;47349;55.640;37.692;2022-08-30T02:31:50;98465.19;;;18.67;89.93
61484;BME280;47349;55.640;37.692;2022-08-30T02:34:33;98510.19;;;18.90;89.71
61484;BME280;47349;55.640;37.692;2022-08-30T02:37:14;98473.41;;;18.72;89.99
61484;BME280;47349;55.640;37.692;2022-08-30T02:39:55;98507.38;;;18.80;90.32
61484;BME280;47349;55.640;37.692;2022-08-30T02:42:40;98515.88;;;18.88;89.84
61484;BME280;47349;55.640;37.692;2022-08-30T02:45:17;98504.66;;;18.80;90.30
61484;BME280;47349;55.640;37.692;2022-08-30T02:48:00;98506.25;;;18.75;90.05
61484;BME280;47349;55.640;37.692;2022-08-30T02:50:48;98497.56;;;18.73;90.00
61484;BME280;47349;55.640;37.692;2022-08-30T02:53:31;98472.19;;;18.63;89.72
61484;BME280;47349;55.640;37.692;2022-08-30T02:56:16;98523.53;;;18.91;89.88
61484;BME280;47349;55.640;37.692;2022-08-30T02:59:00;98531.13;;;18.94;89.41
61484;BME280;47349;55.640;37.692;2022-08-30T03:01:44;98493.56;;;18.81;88.69
61484;BME280;47349;55.640;37.692;2022-08-30T03:04:17;98487.13;;;18.92;88.21
61484;BME280;47349;55.640;37.692;2022-08-30T03:06:55;98493.78;;;19.07;87.27
61484;BME280;47349;55.640;37.692;2022-08-30T03:09:35;98473.56;;;18.92;87.58
61484;BME280;47349;55.640;37.692;2022-08-30T03:12:25;98467.31;;;18.92;87.52
61484;BME280;47349;55.640;37.692;2022-08-30T03:15:01;98464.38;;;18.98;87.12
61484;BME280;47349;55.640;37.692;2022-08-30T03:18:06;98475.03;;;19.05;86.86
61484;BME280;47349;55.640;37.692;2022-08-30T03:21:16;98519.78;;;19.35;86.76
61484;BME280;47349;55.640;37.692;2022-08-30T19:56:05;98346.19;;;23.04;60.74
61484;BME280;47349;55.640;37.692;2022-08-30T19:58:35;98329.41;;;22.92;60.68
61484;BME280;47349;55.640;37.692;2022-08-30T20:01:16;98329.66;;;22.91;60.69
61484;BME280;47349;55.640;37.692;2022-08-30T20:03:57;98329.50;;;22.77;60.27
61484;BME280;47349;55.640;37.692;2022-08-30T20:06:41;98343.63;;;22.89;60.74
61484;BME280;47349;55.640;37.692;2022-08-30T20:09:15;98337.63;;;22.82;60.43
61484;BME280;47349;55.640;37.692;2022-08-30T20:11:56;98350.50;;;22.81;60.76
61484;BME280;47349;55.640;37.692;2022-08-30T20:14:38;98346.94;;;22.81;60.18
61484;BME280;47349;55.640;37.692;2022-08-30T20:17:19;98358.94;;;22.85;60.22
61484;BME280;47349;55.640;37.692;2022-08-30T20:20:02;98345.94;;;22.72;60.55
61484;BME280;47349;55.640;37.692;2022-08-30T20:22:48;98359.03;;;22.75;60.79
61484;BME280;47349;55.640;37.692;2022-08-30T20:25:29;98345.53;;;22.60;61.07
61484;BME280;47349;55.640;37.692;2022-08-30T20:28:11;98335.50;;;22.50;61.60
61484;BME280;47349;55.640;37.692;2022-08-30T20:30:53;98345.88;;;22.48;62.10
61484;BME280;47349;55.640;37.692;2022-08-30T20:33:36;98324.88;;;22.43;61.92
61484;BME280;47349;55.640;37.692;2022-08-30T20:36:17;98341.31;;;22.38;62.50
61484;BME280;47349;55.640;37.692;2022-08-30T20:38:47;98358.16;;;22.50;62.53
61484;BME280;47349;55.640;37.692;2022-08-30T20:41:28;98327.09;;;22.41;62.52
61484;BME280;47349;55.640;37.692;2022-08-30T20:44:10;98336.72;;;22.33;62.84
61484;BME280;47349;55.640;37.692;2022-08-30T20:46:43;98325.31;;;22.26;62.90
61484;BME280;47349;55.640;37.692;2022-08-30T20:49:13;98343.00;;;22.34;63.21
61484;BME280;47349;55.640;37.692;2022-08-30T20:51:54;98353.38;;;22.32;63.17
61484;BME280;47349;55.640;37.692;2022-08-30T20:54:35;98359.63;;;22.38;63.16
61484;BME280;47349;55.640;37.692;2022-08-30T20:57:16;98358.31;;;22.30;63.48
61484;BME280;47349;55.640;37.692;2022-08-30T20:59:57;98366.56;;;22.25;63.65
61484;BME280;47349;55.640;37.692;2022-08-30T21:02:40;98314.53;;;22.06;63.62
61484;BME280;47349;55.640;37.692;2022-08-30T21:05:22;98331.41;;;22.08;63.95
61484;BME280;47349;55.640;37.692;2022-08-30T21:07:58;98318.63;;;22.03;62.96
61484;BME280;47349;55.640;37.692;2022-08-30T21:10:40;98343.16;;;22.14;63.31
61484;BME280;47349;55.640;37.692;2022-08-30T21:13:09;98341.00;;;22.05;63.55
61484;BME280;47349;55.640;37.692;2022-08-30T21:15:55;98330.41;;;21.99;63.46
61484;BME280;47349;55.640;37.692;2022-08-30T21:18:36;98343.50;;;21.97;63.13
61484;BME280;47349;55.640;37.692;2022-08-30T21:21:21;98329.06;;;21.96;62.57
61484;BME280;47349;55.640;37.692;2022-08-30T21:24:05;98351.13;;;22.05;62.39
61484;BME280;47349;55.640;37.692;2022-08-30T21:26:49;98328.28;;;21.91;61.82
61484;BME280;47349;55.640;37.692;2022-08-30T21:29:32;98321.50;;;21.83;61.51
61484;BME280;47349;55.640;37.692;2022-08-30T21:32:13;98346.47;;;22.05;61.22
61484;BME280;47349;55.640;37.692;2022-08-30T21:34:56;98323.31;;;21.98;60.86
61484;BME280;47349;55.640;37.692;2022-08-30T21:37:55;98335.56;;;22.05;59.63
61484;BME280;47349;55.640;37.692;2022-08-30T21:40:36;98332.56;;;22.02;59.41
61484;BME280;47349;55.640;37.692;2022-08-30T21:43:17;98332.84;;;22.00;59.64
61484;BME280;47349;55.640;37.692;2022-08-30T21:46:07;98337.44;;;22.10;59.64
61484;BME280;47349;55.640;37.692;2022-08-30T21:48:49;98326.50;;;22.10;59.06
61484;BME280;47349;55.640;37.692;2022-08-30T21:51:20;98317.56;;;21.99;58.06
61484;BME280;47349;55.640;37.692;2022-08-30T21:53:48;98339.91;;;22.12;58.08
61484;BME280;47349;55.640;37.692;2022-08-30T21:56:29;98317.31;;;22.01;58.09
61484;BME280;47349;55.640;37.692;2022-08-30T22:02:27;98327.59;;;22.14;57.95
61484;BME280;47349;55.640;37.692;2022-08-30T22:05:17;98311.25;;;22.04;57.88
61484;BME280;47349;55.640;37.692;2022-08-30T22:08:00;98288.44;;;21.90;58.13
61484;BME280;47349;55.640;37.692;2022-08-30T22:10:43;98302.84;;;22.00;57.84
61484;BME280;47349;55.640;37.692;2022-08-30T22:13:25;98294.66;;;22.00;58.05
61484;BME280;47349;55.640;37.692;2022-08-30T22:16:14;98317.50;;;22.15;58.03
61484;BME280;47349;55.640;37.692;2022-08-30T22:18:56;98313.13;;;22.08;58.28
61484;BME280;47349;55.640;37.692;2022-08-30T22:21:41;98304.72;;;22.05;58.25
61484;BME280;47349;55.640;37.692;2022-08-30T22:24:24;98315.06;;;22.08;58.20
61484;BME280;47349;55.640;37.692;2022-08-30T22:27:06;98307.19;;;22.01;58.50
61484;BME280;47349;55.640;37.692;2022-08-30T22:29:53;98308.34;;;21.95;58.64
61484;BME280;47349;55.640;37.692;2022-08-30T22:32:36;98298.09;;;21.77;58.87
61484;BME280;47349;55.640;37.692;2022-08-30T22:35:18;98293.72;;;21.81;58.81
61484;BME280;47349;55.640;37.692;2022-08-30T22:38:00;98275.75;;;21.70;59.04
61484;BME280;47349;55.640;37.692;2022-08-30T22:40:44;98307.31;;;21.86;59.13
61484;BME280;47349;55.640;37.692;2022-08-30T22:43:25;98305.06;;;21.93;58.99
61484;BME280;47349;55.640;37.692;2022-08-30T22:46:09;98291.22;;;21.85;58.82
61484;BME280;47349;55.640;37.692;2022-08-30T22:48:53;98291.69;;;21.97;58.72
61484;BME280;47349;55.640;37.692;2022-08-30T22:51:36;98307.28;;;21.91;58.77
61484;BME280;47349;55.640;37.692;2022-08-30T22:54:20;98298.94;;;21.72;58.98
61484;BME280;47349;55.640;37.692;2022-08-30T22:56:47;98307.38;;;21.76;59.49
61484;BME280;47349;55.640;37.692;2022-08-30T22:59:29;98290.53;;;21.64;59.83
61484;BME280;47349;55.640;37.692;2022-08-30T23:02:11;98273.25;;;21.34;60.57
61484;BME280;47349;55.640;37.692;2022-08-30T23:04:52;98294.75;;;21.36;61.20
61484;BME280;47349;55.640;37.692;2022-08-30T23:07:34;98319.59;;;21.34;61.85
61484;BME280;47349;55.640;37.692;2022-08-30T23:10:17;98300.53;;;21.24;62.30
61484;BME280;47349;55.640;37.692;2022-08-30T23:12:59;98301.91;;;21.16;62.78
61484;BME280;47349;55.640;37.692;2022-08-30T23:15:41;98282.38;;;20.94;63.14
61484;BME280;47349;55.640;37.692;2022-08-30T23:18:12;98291.63;;;20.93;63.47
61484;BME280;47349;55.640;37.692;2022-08-30T23:21:02;98302.28;;;20.89;63.66
61484;BME280;47349;55.640;37.692;2022-08-30T23:23:46;98314.53;;;20.87;64.25
61484;BME280;47349;55.640;37.692;2022-08-30T23:26:37;98285.19;;;20.48;64.92
61484;BME280;47349;55.640;37.692;2022-08-30T23:29:37;98297.69;;;20.59;65.28
61484;BME280;47349;55.640;37.692;2022-08-30T23:32:38;98304.53;;;20.57;65.81
61484;BME280;47349;55.640;37.692;2022-08-30T23:35:39;98311.31;;;20.54;65.79
61484;BME280;47349;55.640;37.692;2022-08-30T23:38:39;98295.78;;;20.34;66.18
61484;BME280;47349;55.640;37.692;2022-08-30T23:41:42;98308.56;;;20.44;66.39
61484;BME280;47349;55.640;37.692;2022-08-30T23:44:44;98288.72;;;20.23;67.00
61484;BME280;47349;55.640;37.692;2022-08-30T23:47:45;98297.44;;;20.10;67.31
61484;BME280;47349;55.640;37.692;2022-08-30T23:50:48;98299.91;;;20.16;67.79
61484;BME280;47349;55.640;37.692;2022-08-30T23:53:48;98281.09;;;20.05;67.98
61484;BME280;47349;55.640;37.692;2022-08-30T23:56:49;98308.88;;;20.12;68.10
61484;BME280;47349;55.640;37.692;2022-08-30T23:59:49;98281.63;;;19.76;68.46
